Time;durP1;ratioP1;P1;durP2;ratioP2;P2;SDS_P1;SDS_P2;PMS_P1;PMS_P2;Temp;Humidity;BMP_temperature;BMP_pressure;BME280_temperature;BME280_humidity;BME280_pressure;Samples;Min_cycle;Max_cycle;Signal;HPM_P1;HPM_P2
2022/06/09 00:01:22;;;;;;;17.27;16.00;;;;;;;18.84;68.69;99408.63;4978402;28;97153;-86
2022/06/09 00:03:57;;;;;;;18.85;17.25;;;;;;;18.95;68.27;99413.88;4985007;28;98895;-86
2022/06/09 00:06:25;;;;;;;19.25;16.73;;;;;;;18.92;68.48;99410.66;4992792;28;99775;-87
2022/06/09 00:08:51;;;;;;;17.45;15.93;;;;;;;18.93;68.37;99410.50;4969606;28;101298;-86
2022/06/09 00:11:20;;;;;;;19.13;17.30;;;;;;;18.97;68.28;99403.16;4986377;28;96864;-86
2022/06/09 00:13:45;;;;;;;18.90;17.02;;;;;;;18.99;68.38;99402.03;4982950;28;97645;-87
2022/06/09 00:16:13;;;;;;;18.10;16.27;;;;;;;18.67;68.81;99375.41;4996263;28;98612;-86
2022/06/09 00:18:39;;;;;;;17.55;16.25;;;;;;;18.81;68.71;99389.41;4977385;28;101633;-86
2022/06/09 00:21:05;;;;;;;18.42;16.80;;;;;;;18.75;68.96;99402.25;4988048;28;96902;-87
2022/06/09 00:23:30;;;;;;;17.75;16.35;;;;;;;18.68;69.18;99395.72;4995251;28;96878;-86
2022/06/09 00:25:56;;;;;;;19.25;17.75;;;;;;;18.66;69.08;99380.88;4962331;28;101654;-87
2022/06/09 00:28:22;;;;;;;18.45;17.05;;;;;;;18.70;69.34;99393.78;4982265;28;101082;-88
2022/06/09 00:30:47;;;;;;;18.92;17.52;;;;;;;18.65;69.18;99388.00;4965588;28;97261;-86
2022/06/09 00:33:13;;;;;;;18.52;17.08;;;;;;;18.48;69.58;99354.84;4975681;28;97388;-87
2022/06/09 00:35:39;;;;;;;18.60;17.10;;;;;;;18.68;69.22;99389.56;4987592;28;97168;-88
2022/06/09 00:38:05;;;;;;;19.63;17.95;;;;;;;18.73;69.23;99388.25;4977599;28;97857;-87
2022/06/09 00:40:30;;;;;;;19.63;17.95;;;;;;;18.64;70.04;99386.31;4984795;28;97816;-89
2022/06/09 00:42:58;;;;;;;19.15;17.38;;;;;;;18.65;70.12;99377.38;4978413;28;97357;-87
2022/06/09 00:45:36;;;;;;;18.75;17.30;;;;;;;18.64;70.09;99375.66;4992391;28;97416;-87
2022/06/09 00:48:16;;;;;;;18.70;17.33;;;;;;;18.61;70.22;99380.41;4961659;28;101002;-84
2022/06/09 00:50:42;;;;;;;19.17;17.58;;;;;;;18.65;69.85;99371.22;4984305;28;97173;-88
2022/06/09 00:53:17;;;;;;;18.70;17.38;;;;;;;18.63;69.73;99366.03;4999863;28;96861;-87
2022/06/09 00:55:43;;;;;;;19.05;17.52;;;;;;;18.54;69.80;99345.53;4986385;28;101191;-87
2022/06/09 00:58:11;;;;;;;20.15;18.50;;;;;;;18.67;69.73;99371.91;4983605;28;99303;-87
2022/06/09 01:01:07;;;;;;;18.98;17.33;;;;;;;18.75;69.77;99374.81;4984460;28;97640;-87
2022/06/09 01:03:40;;;;;;;19.13;17.52;;;;;;;18.72;69.68;99359.09;4980579;28;96854;-87
2022/06/09 01:06:09;;;;;;;19.30;17.75;;;;;;;18.66;70.04;99364.91;4961910;28;101943;-87
2022/06/09 01:08:38;;;;;;;19.88;18.35;;;;;;;18.72;69.32;99362.59;4992914;28;98352;-87
2022/06/09 01:11:05;;;;;;;19.17;17.65;;;;;;;18.66;69.67;99355.13;4986307;28;97168;-87
2022/06/09 01:13:31;;;;;;;18.52;17.05;;;;;;;18.72;69.00;99356.44;4963635;28;96903;-87
2022/06/09 01:16:08;;;;;;;18.50;17.20;;;;;;;18.68;69.18;99361.19;4981653;28;98272;-87
2022/06/09 01:19:04;;;;;;;20.10;18.58;;;;;;;18.51;69.38;99338.63;4982672;28;100711;-87
2022/06/09 01:22:00;;;;;;;20.05;18.40;;;;;;;18.32;69.77;99311.88;4996067;28;96765;-87
2022/06/09 01:24:49;;;;;;;19.50;18.10;;;;;;;18.40;70.35;99340.50;4971642;28;96938;-87
2022/06/09 01:27:26;;;;;;;19.08;17.67;;;;;;;18.41;70.54;99342.16;5009267;28;98748;-87
2022/06/09 01:30:06;;;;;;;20.10;18.70;;;;;;;18.45;70.75;99351.59;5008162;28;97046;-87
2022/06/09 01:32:37;;;;;;;19.75;18.33;;;;;;;18.49;70.34;99348.53;5004754;28;97045;-85
2022/06/09 01:35:32;;;;;;;21.20;19.60;;;;;;;18.51;70.65;99359.91;4974472;28;97783;-84
2022/06/09 01:37:58;;;;;;;20.55;18.85;;;;;;;18.34;70.28;99307.31;4987314;28;98431;-85
2022/06/09 01:40:24;;;;;;;20.98;19.17;;;;;;;18.50;70.36;99338.75;4988190;28;101802;-89
2022/06/09 01:42:52;;;;;;;19.95;18.55;;;;;;;18.38;70.03;99321.16;4994015;28;97230;-85
2022/06/09 01:45:27;;;;;;;20.90;19.17;;;;;;;18.53;70.12;99336.72;4971692;28;97268;-87
2022/06/09 01:48:09;;;;;;;19.92;18.38;;;;;;;18.45;70.60;99331.19;4983816;28;100317;-88
2022/06/09 01:50:48;;;;;;;20.05;18.33;;;;;;;18.33;70.70;99308.28;4982075;28;101698;-87
2022/06/09 01:53:20;;;;;;;20.83;19.23;;;;;;;18.43;70.56;99330.44;4976503;28;96861;-88
2022/06/09 01:55:51;;;;;;;19.73;18.27;;;;;;;18.33;71.20;99332.19;4971540;28;96861;-88
2022/06/09 01:58:19;;;;;;;20.98;19.13;;;;;;;18.28;71.81;99321.94;4961140;28;101558;-87
2022/06/09 02:12:25;;;;;;;21.92;20.25;;;;;;;18.68;70.36;99323.97;5075784;27;96552;-86
2022/06/09 02:14:55;;;;;;;21.80;20.20;;;;;;;18.49;71.41;99316.66;5021538;27;96693;-87
2022/06/09 02:17:20;;;;;;;22.55;20.65;;;;;;;18.39;71.79;99329.03;5025494;27;100167;-86
2022/06/09 02:19:47;;;;;;;22.90;21.10;;;;;;;18.43;72.10;99324.31;5016124;27;101892;-87
2022/06/09 02:22:13;;;;;;;23.02;21.02;;;;;;;18.42;72.40;99318.16;5008277;27;96902;-86
2022/06/09 02:24:39;;;;;;;23.13;21.33;;;;;;;18.42;72.72;99315.50;5031887;27;97152;-87
2022/06/09 02:27:05;;;;;;;21.00;19.33;;;;;;;18.23;72.79;99278.97;5022338;27;97378;-86
2022/06/09 02:29:32;;;;;;;21.17;19.55;;;;;;;18.53;72.30;99320.75;5029985;27;100098;-86
2022/06/09 02:31:58;;;;;;;22.45;20.45;;;;;;;18.56;72.35;99327.66;5016614;27;96940;-87
2022/06/09 02:34:23;;;;;;;22.15;20.45;;;;;;;18.42;72.79;99334.09;5033062;27;96889;-87
2022/06/09 02:36:49;;;;;;;21.30;19.63;;;;;;;18.43;72.93;99343.75;5030438;27;101178;-87
2022/06/09 02:39:15;;;;;;;22.63;20.67;;;;;;;18.43;73.16;99332.28;5031785;27;97937;-87
2022/06/09 02:41:40;;;;;;;23.33;21.27;;;;;;;18.47;72.72;99333.69;5031239;27;97344;-86
2022/06/09 02:44:06;;;;;;;23.90;21.80;;;;;;;18.44;73.42;99347.22;5034537;27;97002;-87
2022/06/09 02:46:32;;;;;;;22.17;20.15;;;;;;;18.60;72.73;99352.97;5032440;27;101342;-85
2022/06/09 02:48:58;;;;;;;23.25;21.45;;;;;;;18.63;72.82;99357.22;5016376;27;100398;-87
2022/06/09 02:51:28;;;;;;;24.23;21.85;;;;;;;18.42;73.07;99346.53;5041729;27;97144;-84
2022/06/09 02:53:59;;;;;;;24.30;22.20;;;;;;;18.43;73.62;99366.81;5047929;27;97088;-89
2022/06/09 02:56:25;;;;;;;24.13;22.02;;;;;;;18.37;73.68;99370.81;5027460;27;99875;-87
2022/06/09 02:58:51;;;;;;;24.92;22.85;;;;;;;18.38;73.56;99363.69;5009473;27;101012;-84
2022/06/09 03:01:17;;;;;;;24.98;23.05;;;;;;;18.42;73.71;99381.06;5013132;27;96982;-85
2022/06/09 03:03:42;;;;;;;25.58;23.48;;;;;;;18.43;73.78;99383.59;5048323;27;97330;-87
2022/06/09 03:06:08;;;;;;;25.63;23.52;;;;;;;18.38;73.99;99382.28;5033081;27;99976;-87
2022/06/09 03:08:33;;;;;;;27.02;24.23;;;;;;;18.40;73.94;99385.66;5032552;27;101003;-87
2022/06/09 03:10:59;;;;;;;27.40;25.13;;;;;;;18.40;73.98;99390.97;5009252;27;97427;-86
2022/06/09 03:13:25;;;;;;;25.77;23.77;;;;;;;18.37;74.22;99399.19;5009680;28;99343;-86
2022/06/09 03:15:51;;;;;;;27.15;24.88;;;;;;;18.41;73.88;99390.84;5027845;28;98559;-87
2022/06/09 03:18:17;;;;;;;26.58;24.20;;;;;;;18.35;73.57;99385.19;5031894;28;100041;-87
2022/06/09 03:20:44;;;;;;;27.25;24.92;;;;;;;18.31;74.30;99392.56;5001682;28;97055;-87
2022/06/09 03:23:09;;;;;;;27.42;25.13;;;;;;;18.30;74.02;99394.38;5017437;28;96779;-87
2022/06/09 03:25:35;;;;;;;25.27;23.17;;;;;;;18.33;73.96;99394.13;5013477;28;101372;-84
2022/06/09 03:28:01;;;;;;;27.02;24.83;;;;;;;18.33;73.77;99380.00;5007070;28;97080;-85
2022/06/09 03:30:26;;;;;;;27.38;25.17;;;;;;;18.28;74.53;99377.72;5007743;28;97092;-84
2022/06/09 03:32:52;;;;;;;26.60;24.45;;;;;;;18.39;74.08;99386.63;5027777;28;97262;-87
2022/06/09 03:35:18;;;;;;;26.92;24.40;;;;;;;18.28;73.97;99374.22;5013563;28;101655;-87
2022/06/09 03:37:44;;;;;;;26.42;24.30;;;;;;;18.45;74.06;99399.44;4999763;28;100928;-85
2022/06/09 03:40:14;;;;;;;26.30;24.15;;;;;;;18.38;74.10;99393.75;5033362;28;97254;-89
2022/06/09 03:42:39;;;;;;;28.23;25.63;;;;;;;18.34;74.60;99392.31;5007412;28;96955;-86
2022/06/09 03:45:05;;;;;;;26.40;24.40;;;;;;;18.32;74.69;99383.63;5035268;28;98125;-86
2022/06/09 03:47:31;;;;;;;28.58;26.13;;;;;;;18.44;74.27;99390.63;5000621;28;99916;-85
2022/06/09 03:49:57;;;;;;;26.60;24.50;;;;;;;18.39;74.77;99390.13;5014501;28;97207;-86
2022/06/09 03:52:22;;;;;;;27.73;25.52;;;;;;;18.30;74.99;99386.41;4998262;28;97031;-87
2022/06/09 03:54:48;;;;;;;26.35;24.05;;;;;;;18.30;74.96;99385.56;5009724;28;98514;-86
2022/06/09 03:57:13;;;;;;;25.73;23.52;;;;;;;18.42;74.84;99389.88;5033490;28;98451;-87
2022/06/09 03:59:39;;;;;;;27.27;25.13;;;;;;;18.48;74.73;99394.69;5008998;28;97233;-86
2022/06/09 04:02:04;;;;;;;26.67;24.48;;;;;;;18.41;75.16;99403.28;5023886;28;96854;-86
2022/06/09 04:04:30;;;;;;;26.60;24.50;;;;;;;18.46;74.85;99404.59;4997061;28;101561;-85
2022/06/09 04:06:55;;;;;;;27.40;25.08;;;;;;;18.39;75.03;99403.41;5013843;28;100812;-87
2022/06/09 04:09:21;;;;;;;27.13;24.67;;;;;;;18.32;75.04;99397.78;5015291;28;97199;-87
2022/06/09 04:11:46;;;;;;;27.23;24.92;;;;;;;18.41;75.23;99403.28;5008489;28;97063;-87
2022/06/09 04:14:12;;;;;;;27.42;25.20;;;;;;;18.33;75.52;99401.25;4998922;28;101193;-88
2022/06/09 04:16:41;;;;;;;25.92;23.83;;;;;;;18.42;75.03;99405.00;4995431;28;100130;-84
2022/06/09 04:19:08;;;;;;;26.58;24.58;;;;;;;18.40;75.42;99406.91;5014260;28;97089;-88
2022/06/09 04:21:35;;;;;;;26.38;23.92;;;;;;;18.37;75.38;99397.38;5011869;28;96870;-87
2022/06/09 04:24:01;;;;;;;25.95;23.75;;;;;;;18.55;74.69;99403.00;4998871;28;101393;-88
2022/06/09 04:26:28;;;;;;;26.27;24.27;;;;;;;18.55;75.15;99410.97;5017972;28;100873;-87
2022/06/09 04:28:54;;;;;;;27.02;24.67;;;;;;;18.44;75.16;99385.31;5027369;28;96931;-88
2022/06/09 04:31:20;;;;;;;25.80;23.52;;;;;;;18.61;75.02;99409.63;5016674;28;96942;-87
2022/06/09 04:33:46;;;;;;;25.35;22.92;;;;;;;18.66;74.98;99399.47;5021223;28;98353;-85
2022/06/09 04:36:13;;;;;;;25.35;23.38;;;;;;;18.64;74.79;99393.44;5008847;28;100811;-87
2022/06/09 04:38:38;;;;;;;26.25;23.90;;;;;;;18.78;74.32;99406.47;5016003;28;96740;-85
2022/06/09 04:41:09;;;;;;;26.83;24.65;;;;;;;18.77;74.41;99392.34;5013896;28;96991;-87
2022/06/09 04:43:46;;;;;;;27.98;25.23;;;;;;;18.78;74.06;99388.69;4991836;28;101355;-88
2022/06/09 04:46:14;;;;;;;28.40;26.00;;;;;;;18.75;74.25;99393.44;5005564;28;101438;-87
2022/06/09 04:48:40;;;;;;;27.15;24.60;;;;;;;18.65;75.20;99414.59;5001088;28;96992;-87
2022/06/09 04:51:07;;;;;;;29.33;26.98;;;;;;;18.82;75.07;99410.59;5017705;28;97173;-87
2022/06/09 04:53:33;;;;;;;31.00;27.67;;;;;;;18.48;75.31;99376.09;5015099;28;100765;-87
2022/06/09 04:55:59;;;;;;;28.20;25.77;;;;;;;18.60;76.18;99411.44;5002547;28;101375;-87
2022/06/09 04:58:24;;;;;;;26.15;24.15;;;;;;;18.67;75.87;99412.63;4999778;28;96739;-87
2022/06/09 05:00:50;;;;;;;26.98;24.88;;;;;;;18.58;75.57;99399.25;5012026;28;97824;-85
2022/06/09 05:03:16;;;;;;;25.98;23.58;;;;;;;18.68;76.11;99417.00;5011909;28;98420;-87
2022/06/09 05:05:44;;;;;;;26.48;24.33;;;;;;;18.74;75.96;99423.66;5009326;28;98443;-83
2022/06/09 05:08:13;;;;;;;26.02;23.55;;;;;;;18.79;75.64;99421.44;4999495;28;96951;-83
2022/06/09 05:10:40;;;;;;;27.52;25.42;;;;;;;18.80;76.25;99428.47;5005873;28;97220;-81
2022/06/09 05:13:06;;;;;;;26.50;24.50;;;;;;;18.84;75.81;99429.03;4986369;28;101713;-84
2022/06/09 05:15:37;;;;;;;28.60;26.05;;;;;;;18.90;75.50;99405.44;5019942;28;97819;-83
2022/06/09 05:18:03;;;;;;;29.50;26.80;;;;;;;18.83;75.81;99417.56;4999968;28;96821;-82
2022/06/09 05:20:30;;;;;;;27.90;25.70;;;;;;;18.74;76.30;99427.16;4997729;28;96889;-80
2022/06/09 05:22:56;;;;;;;26.95;24.90;;;;;;;18.72;76.60;99423.72;4993423;28;101391;-87
2022/06/09 05:25:22;;;;;;;28.00;25.23;;;;;;;18.80;76.84;99423.16;5005826;28;101136;-82
2022/06/09 05:27:47;;;;;;;27.15;25.08;;;;;;;18.78;76.75;99433.88;5012753;28;97398;-81
2022/06/09 05:30:16;;;;;;;30.20;27.27;;;;;;;18.96;76.05;99428.03;4999881;28;96867;-83
2022/06/09 05:32:42;;;;;;;28.17;25.85;;;;;;;18.91;76.17;99422.28;5028267;28;97455;-82
2022/06/09 05:35:09;;;;;;;29.77;26.95;;;;;;;18.86;76.58;99425.28;5006580;28;99906;-78
2022/06/09 05:45:48;;;;;;;29.15;26.52;;;;;;;18.97;76.38;99405.81;5015655;28;98311;-87
2022/06/09 05:48:13;;;;;;;27.77;25.48;;;;;;;19.18;76.48;99422.59;4996000;28;96659;-86
2022/06/09 05:50:39;;;;;;;28.25;25.83;;;;;;;19.33;75.93;99424.94;5017304;28;96829;-88
2022/06/09 05:53:05;;;;;;;28.70;26.15;;;;;;;19.44;75.46;99423.06;5010654;28;97977;-87
2022/06/09 05:55:30;;;;;;;30.30;27.58;;;;;;;19.58;75.49;99434.38;5014384;28;97978;-87
2022/06/09 05:57:56;;;;;;;30.45;27.65;;;;;;;19.71;75.14;99429.69;5027777;28;97028;-86
2022/06/09 06:00:22;;;;;;;30.95;28.40;;;;;;;19.65;74.59;99415.09;4992927;28;97926;-87
2022/06/09 06:02:47;;;;;;;32.17;29.27;;;;;;;19.70;74.70;99428.03;4999367;28;99980;-88
2022/06/09 06:06:33;;;;;;;31.80;28.92;;;;;;;19.79;74.87;99440.53;5004637;28;98255;-88
2022/06/09 06:07:58;;;;;;;30.48;27.98;;;;;;;20.19;73.24;99430.88;5022533;28;97368;-87
2022/06/09 06:10:23;;;;;;;32.10;28.67;;;;;;;20.00;73.89;99437.81;5005119;28;97077;-86
2022/06/09 06:12:49;;;;;;;28.67;26.38;;;;;;;19.63;74.64;99421.50;5012229;28;98521;-89
2022/06/09 06:15:15;;;;;;;29.55;27.05;;;;;;;19.78;74.99;99444.19;5010661;28;101236;-88
2022/06/09 06:17:40;;;;;;;29.58;26.95;;;;;;;19.87;75.24;99448.72;5017023;28;97700;-89
2022/06/09 06:20:06;;;;;;;30.75;27.83;;;;;;;20.02;73.89;99446.53;4999069;28;97921;-88
2022/06/09 06:22:32;;;;;;;29.85;27.15;;;;;;;19.85;74.60;99452.47;5007966;28;98001;-88
2022/06/09 06:24:59;;;;;;;31.48;28.88;;;;;;;20.02;74.21;99451.03;5008423;28;100957;-88
2022/06/09 06:27:25;;;;;;;31.08;28.42;;;;;;;20.37;72.94;99453.25;5014458;28;97362;-90
2022/06/09 06:29:51;;;;;;;33.42;30.63;;;;;;;20.27;72.59;99423.88;4998318;28;97525;-87
2022/06/09 06:32:16;;;;;;;32.97;30.27;;;;;;;20.38;72.08;99433.59;4995865;28;101366;-87
2022/06/09 06:34:42;;;;;;;32.17;29.30;;;;;;;20.56;72.08;99439.16;5004317;28;100505;-85
2022/06/09 06:37:08;;;;;;;32.97;30.27;;;;;;;21.18;69.65;99445.13;5008558;28;96824;-89
2022/06/09 06:39:33;;;;;;;30.80;28.27;;;;;;;22.76;65.29;99440.78;5010344;28;98164;-88
2022/06/09 06:41:59;;;;;;;30.58;28.02;;;;;;;23.89;62.56;99444.59;4993370;28;100940;-84
2022/06/09 06:44:33;;;;;;;29.27;26.90;;;;;;;23.32;62.05;99447.69;4998986;28;102261;-83
2022/06/09 06:46:58;;;;;;;30.75;28.08;;;;;;;23.98;60.76;99445.47;5016076;28;97205;-82
2022/06/09 06:49:23;;;;;;;29.02;26.52;;;;;;;23.26;63.21;99443.78;4994286;28;98234;-82
2022/06/09 06:51:49;;;;;;;28.05;25.88;;;;;;;23.48;62.98;99453.16;4997851;28;101539;-81
2022/06/09 06:54:14;;;;;;;27.23;24.92;;;;;;;23.26;63.18;99446.47;4995917;28;101004;-82
2022/06/09 06:56:40;;;;;;;26.77;24.77;;;;;;;22.77;64.22;99454.00;5008169;28;97985;-82
2022/06/09 06:59:05;;;;;;;27.90;25.70;;;;;;;22.49;64.41;99450.53;5016330;28;97417;-81
2022/06/09 07:01:31;;;;;;;26.13;24.20;;;;;;;22.42;65.26;99454.78;5014133;28;97518;-82
2022/06/09 07:03:57;;;;;;;29.15;26.67;;;;;;;22.48;65.26;99459.53;5000943;28;100745;-83
2022/06/09 07:06:24;;;;;;;27.80;25.60;;;;;;;22.48;64.81;99442.66;5016146;28;96848;-81
2022/06/09 07:08:49;;;;;;;27.25;25.05;;;;;;;22.56;64.75;99453.44;5017534;28;97248;-85
2022/06/09 07:11:15;;;;;;;26.33;24.10;;;;;;;22.80;64.35;99442.16;5017614;28;97911;-82
2022/06/09 07:13:42;;;;;;;26.50;24.50;;;;;;;22.97;64.22;99456.56;5026591;28;100691;-83
2022/06/09 07:16:08;;;;;;;25.63;23.60;;;;;;;22.69;64.81;99459.28;5015406;28;96810;-82
2022/06/09 07:18:35;;;;;;;25.80;23.60;;;;;;;22.82;64.60;99470.44;5017264;28;97814;-81
2022/06/09 07:21:01;;;;;;;27.50;25.15;;;;;;;23.47;63.20;99464.88;5001203;28;102030;-81
2022/06/09 07:23:28;;;;;;;26.27;24.25;;;;;;;24.21;59.51;99469.91;5007679;28;100826;-82
2022/06/09 07:25:54;;;;;;;25.05;23.10;;;;;;;23.79;61.09;99470.66;5016554;28;97371;-81
2022/06/09 07:28:19;;;;;;;24.27;22.48;;;;;;;23.24;63.02;99472.56;4994760;28;97627;-84
2022/06/09 07:30:45;;;;;;;24.10;22.35;;;;;;;23.67;61.99;99480.75;5024900;28;100021;-83
2022/06/09 07:33:12;;;;;;;26.10;24.15;;;;;;;23.76;61.88;99477.16;4998836;28;97777;-83
2022/06/09 07:35:38;;;;;;;24.63;22.60;;;;;;;23.81;61.96;99464.13;5000917;28;97137;-84
2022/06/09 07:38:07;;;;;;;26.70;24.50;;;;;;;23.72;62.45;99481.16;5013124;28;96947;-85
2022/06/09 07:40:37;;;;;;;26.52;24.23;;;;;;;23.68;62.84;99474.41;5033267;28;98272;-82
2022/06/09 07:43:03;;;;;;;25.95;23.90;;;;;;;23.73;62.80;99475.63;5016294;28;101257;-85
2022/06/09 07:45:29;;;;;;;24.92;23.13;;;;;;;24.06;61.87;99465.13;5020830;28;97870;-84
2022/06/09 07:47:55;;;;;;;25.75;23.73;;;;;;;24.35;60.50;99472.81;5034619;27;96876;-83
2022/06/09 07:50:21;;;;;;;24.33;22.10;;;;;;;25.84;57.05;99472.06;5030991;28;98028;-83
2022/06/09 07:52:47;;;;;;;24.10;22.30;;;;;;;26.42;55.57;99465.50;4996180;28;101211;-83
2022/06/09 07:55:15;;;;;;;22.80;20.88;;;;;;;26.34;55.68;99474.41;5014647;28;97443;-84
2022/06/09 07:57:41;;;;;;;21.83;20.13;;;;;;;26.48;55.41;99464.78;5016127;28;98199;-83
2022/06/09 08:00:08;;;;;;;21.50;19.90;;;;;;;26.59;54.90;99471.66;4997416;28;101055;-83
2022/06/09 08:02:39;;;;;;;23.45;21.63;;;;;;;27.69;51.30;99466.00;5012618;28;97760;-83
2022/06/09 08:05:05;;;;;;;20.83;19.10;;;;;;;28.62;49.55;99461.94;5012490;28;96813;-83
2022/06/09 08:07:30;;;;;;;20.88;19.15;;;;;;;29.70;47.04;99462.81;4998653;28;97358;-82
2022/06/09 08:09:56;;;;;;;21.10;19.40;;;;;;;28.72;48.79;99458.94;4998848;28;101771;-84
2022/06/09 08:12:21;;;;;;;21.30;19.67;;;;;;;28.01;49.60;99472.94;5016082;28;97489;-84
2022/06/09 08:14:47;;;;;;;21.25;19.23;;;;;;;27.57;51.01;99472.84;5026777;28;96788;-83
2022/06/09 08:17:12;;;;;;;19.58;17.98;;;;;;;27.85;49.18;99475.81;5015742;28;96937;-82
2022/06/09 08:19:38;;;;;;;19.63;18.33;;;;;;;28.28;48.72;99470.63;5011599;28;101032;-83
2022/06/09 08:22:03;;;;;;;20.92;19.40;;;;;;;27.47;49.47;99482.03;5014617;28;101379;-83
2022/06/09 08:24:33;;;;;;;20.23;18.60;;;;;;;26.87;51.20;99475.53;5033493;28;96846;-84
2022/06/09 08:26:59;;;;;;;19.98;18.67;;;;;;;26.41;51.52;99478.09;5009142;28;97180;-84
2022/06/09 08:29:25;;;;;;;19.77;18.42;;;;;;;26.24;52.35;99470.25;5024143;28;97442;-84
2022/06/09 08:31:51;;;;;;;19.45;17.98;;;;;;;25.89;52.83;99488.50;5003940;28;98204;-80
2022/06/09 08:34:16;;;;;;;19.17;17.88;;;;;;;25.40;53.93;99488.53;5010741;28;97266;-82
2022/06/09 08:36:42;;;;;;;21.30;19.52;;;;;;;25.24;53.88;99483.97;5012288;28;97869;-83
2022/06/09 08:39:08;;;;;;;19.52;18.02;;;;;;;25.32;54.03;99483.16;5020818;28;101126;-85
2022/06/09 08:41:39;;;;;;;19.48;18.08;;;;;;;25.29;54.21;99490.53;5006868;28;97753;-86
2022/06/09 08:44:21;;;;;;;20.20;18.80;;;;;;;25.61;53.70;99488.00;5012575;28;96968;-82
2022/06/09 08:47:12;;;;;;;19.48;18.25;;;;;;;25.63;52.95;99481.47;4989782;28;97294;-82
2022/06/09 08:50:00;;;;;;;20.42;18.90;;;;;;;25.33;53.51;99482.13;5009030;28;98462;-87
2022/06/09 08:52:38;;;;;;;19.23;17.92;;;;;;;25.75;52.51;99488.16;5013631;28;100259;-86
2022/06/09 08:55:26;;;;;;;19.08;17.75;;;;;;;26.86;50.33;99489.19;5026688;28;97043;-82
2022/06/09 08:57:58;;;;;;;19.33;17.92;;;;;;;27.07;48.65;99492.06;5029047;28;96689;-85
2022/06/09 09:00:26;;;;;;;19.40;18.10;;;;;;;27.08;49.52;99495.59;5016411;28;98659;-92
2022/06/09 09:03:17;;;;;;;19.55;18.17;;;;;;;27.00;49.91;99490.28;5025113;28;97245;-87
2022/06/09 09:05:59;;;;;;;18.27;17.08;;;;;;;26.56;49.65;99491.69;5022759;28;96731;-86
2022/06/09 09:08:25;;;;;;;17.70;16.35;;;;;;;26.31;51.33;99490.91;5010786;28;96898;-83
2022/06/09 09:10:52;;;;;;;18.77;17.38;;;;;;;25.81;52.92;99496.56;5007743;28;100963;-85
2022/06/09 09:13:32;;;;;;;19.65;18.27;;;;;;;25.48;54.45;99501.94;4998806;28;101698;-84
2022/06/09 09:16:03;;;;;;;19.80;18.40;;;;;;;25.28;54.77;99488.03;4994006;28;97787;-83
2022/06/09 09:18:54;;;;;;;20.02;18.38;;;;;;;24.96;55.29;99489.63;5009537;28;97020;-83
2022/06/09 09:21:40;;;;;;;18.55;17.25;;;;;;;25.27;54.80;99503.28;5017391;27;101012;-84
2022/06/09 09:24:30;;;;;;;19.45;18.05;;;;;;;24.77;54.68;99484.53;5033215;27;98481;-84
2022/06/09 09:27:14;;;;;;;19.47;17.90;;;;;;;24.55;54.94;99507.44;5031737;28;97081;-83
2022/06/09 09:29:58;;;;;;;19.88;18.48;;;;;;;24.71;55.40;99488.72;5026099;28;96958;-83
2022/06/09 09:32:27;;;;;;;18.95;17.17;;;;;;;24.85;55.03;99509.56;5029537;28;101581;-85
2022/06/09 09:34:55;;;;;;;19.52;17.92;;;;;;;24.84;55.13;99482.88;5013589;28;101590;-86
2022/06/09 09:37:26;;;;;;;19.58;18.25;;;;;;;24.83;55.97;99462.41;5016144;28;96841;-86
2022/06/09 09:40:15;;;;;;;20.27;18.67;;;;;;;24.89;55.11;99485.91;5014885;28;96886;-88
2022/06/09 09:42:42;;;;;;;18.63;17.33;;;;;;;25.15;55.13;99495.72;5000052;28;100895;-90
2022/06/09 09:45:11;;;;;;;19.58;18.17;;;;;;;25.32;54.59;99505.47;5008676;28;101531;-84
2022/06/09 09:47:54;;;;;;;19.83;18.17;;;;;;;25.29;53.98;99490.53;5013894;28;96814;-89
2022/06/09 09:50:38;;;;;;;18.65;17.23;;;;;;;25.55;53.91;99520.94;5013258;28;96922;-87
2022/06/09 09:53:19;;;;;;;19.42;17.45;;;;;;;25.61;53.45;99510.34;5005655;28;100410;-86
2022/06/09 09:55:54;;;;;;;;;;;;;;;25.46;53.50;99518.25;5002806;28;101385;-90
2022/06/09 09:58:34;;;;;;;18.17;16.75;;;;;;;25.48;53.60;99521.59;5023075;28;97196;-86
2022/06/09 10:00:59;;;;;;;19.98;18.45;;;;;;;25.39;53.63;99497.56;5024831;28;97420;-86
2022/06/09 10:09:29;;;;;;;17.77;16.40;;;;;;;25.94;52.22;99516.53;5013186;28;96643;-88
2022/06/09 10:11:59;;;;;;;17.60;16.40;;;;;;;26.08;51.67;99519.56;4995177;28;96985;-87
2022/06/09 10:14:33;;;;;;;17.83;16.73;;;;;;;26.17;51.48;99516.66;4993752;28;101327;-86
2022/06/09 10:17:00;;;;;;;19.42;17.83;;;;;;;26.21;51.39;99519.88;5011566;28;98216;-87
2022/06/09 10:19:28;;;;;;;18.02;16.88;;;;;;;26.33;51.15;99525.72;5012729;28;97089;-89
2022/06/09 10:22:00;;;;;;;19.00;17.60;;;;;;;26.08;51.71;99525.78;5010249;28;97215;-87
2022/06/09 10:24:56;;;;;;;22.08;20.05;;;;;;;25.86;52.21;99527.34;4986491;28;100613;-82
2022/06/09 10:27:28;;;;;;;22.60;20.77;;;;;;;25.69;52.40;99522.94;5022474;28;97238;-84
2022/06/09 10:30:10;;;;;;;27.88;21.73;;;;;;;25.52;52.97;99532.84;5011951;28;97179;-86
2022/06/09 10:32:47;;;;;;;22.70;20.60;;;;;;;25.62;53.30;99533.50;5023409;28;97190;-89
2022/06/09 10:35:26;;;;;;;22.38;19.88;;;;;;;25.57;52.91;99530.50;5007869;28;101181;-87
2022/06/09 10:38:05;;;;;;;21.20;19.10;;;;;;;25.52;53.15;99531.00;5017564;28;98459;-86
2022/06/09 10:40:41;;;;;;;19.60;18.00;;;;;;;25.60;53.53;99537.38;5010910;28;97518;-85
2022/06/09 10:43:30;;;;;;;19.85;18.33;;;;;;;25.63;53.79;99537.91;4995536;28;97210;-86
2022/06/09 10:45:57;;;;;;;19.13;17.60;;;;;;;25.64;53.18;99542.25;4998746;28;101421;-86
2022/06/09 10:57:24;;;;;;;;;;;;;;;25.30;52.83;99528.97;5017938;28;101328;-84
2022/06/09 11:00:02;;;;;;;18.17;16.40;;;;;;;25.34;52.32;99538.38;5005830;28;100630;-83
2022/06/09 11:02:31;;;;;;;18.98;17.48;;;;;;;25.36;52.08;99522.91;5014790;28;97902;-84
2022/06/09 11:04:57;;;;;;;18.13;16.73;;;;;;;25.30;51.75;99540.53;5028446;27;97324;-82
2022/06/09 11:07:35;;;;;;;17.27;15.68;;;;;;;25.48;51.75;99540.41;5016577;28;97954;-83
2022/06/09 11:10:06;;;;;;;18.10;16.60;;;;;;;25.55;51.43;99535.19;4991869;28;101044;-84
2022/06/09 11:12:37;;;;;;;18.55;17.13;;;;;;;25.48;50.92;99512.69;5008334;28;97331;-83
2022/06/09 11:15:21;;;;;;;22.02;20.20;;;;;;;25.58;51.50;99542.09;5029997;28;97124;-82
2022/06/09 11:18:08;;;;;;;20.10;18.17;;;;;;;25.53;51.43;99534.53;5026126;28;98242;-82
2022/06/09 11:21:12;;;;;;;18.30;16.73;;;;;;;25.70;50.91;99521.94;5025107;28;100517;-86
2022/06/09 11:24:07;;;;;;;17.30;16.00;;;;;;;25.58;50.42;99499.94;5015373;28;96689;-84
2022/06/09 11:26:51;;;;;;;18.95;17.20;;;;;;;25.77;51.25;99516.72;4996992;28;97437;-86
2022/06/09 11:29:31;;;;;;;17.52;16.20;;;;;;;25.94;50.94;99529.16;5027631;28;98542;-82
2022/06/09 11:32:21;;;;;;;16.65;15.18;;;;;;;26.05;50.40;99527.97;5031750;27;98286;-91
2022/06/09 11:35:11;;;;;;;17.67;16.20;;;;;;;26.18;49.97;99531.81;4993012;28;97117;-84
2022/06/09 11:37:55;;;;;;;17.65;16.08;;;;;;;26.21;49.72;99522.56;5024409;28;97221;-83
2022/06/09 11:40:47;;;;;;;17.25;15.90;;;;;;;26.14;49.42;99522.38;5011927;28;100985;-83
2022/06/09 11:43:39;;;;;;;16.15;15.05;;;;;;;26.04;49.51;99527.13;5007887;28;102029;-80
2022/06/09 11:46:19;;;;;;;16.50;15.30;;;;;;;26.11;49.44;99524.59;5020877;28;97050;-81
2022/06/09 11:48:50;;;;;;;15.68;14.23;;;;;;;26.08;49.64;99519.56;5013159;28;96907;-81
2022/06/09 11:51:22;;;;;;;16.27;15.07;;;;;;;26.18;49.82;99517.53;5024889;28;101266;-80
2022/06/09 11:53:52;;;;;;;15.80;14.70;;;;;;;26.16;49.93;99528.44;5028998;28;97935;-80
2022/06/09 11:56:43;;;;;;;14.80;13.80;;;;;;;26.07;49.51;99532.16;5019937;28;98024;-80
2022/06/09 11:59:12;;;;;;;15.80;14.70;;;;;;;25.84;49.71;99532.03;5004722;28;97410;-80
2022/06/09 12:01:37;;;;;;;15.95;14.75;;;;;;;25.97;49.27;99526.97;5009638;28;101392;-80
2022/06/09 12:05:00;;;;;;;15.35;14.20;;;;;;;26.00;49.05;99531.16;5002068;28;101589;-80